createdAt,value
2022-09-16T00:01:17.794Z,24.58
2022-09-16T00:03:45.246Z,24.68
2022-09-16T00:06:25.733Z,23.85
2022-09-16T00:08:54.811Z,24.33
2022-09-16T00:11:21.952Z,23.88
2022-09-16T00:13:49.089Z,24.66
2022-09-16T00:16:19.970Z,24.44
2022-09-16T00:18:47.339Z,24.87
2022-09-16T00:21:15.495Z,24.36
2022-09-16T00:23:42.912Z,24.69
2022-09-16T00:26:10.185Z,24.69
2022-09-16T00:28:37.310Z,24.36
2022-09-16T00:31:04.819Z,23.99
2022-09-16T00:33:32.128Z,23.96
2022-09-16T00:36:09.807Z,24.10
2022-09-16T00:38:37.600Z,23.32
2022-09-16T00:41:04.825Z,23.30
2022-09-16T00:43:51.817Z,24.01
2022-09-16T00:46:45.668Z,24.05
2022-09-16T00:49:19.291Z,23.63
2022-09-16T00:51:47.961Z,23.13
2022-09-16T00:54:15.079Z,23.18
2022-09-16T00:56:42.801Z,22.86
2022-09-16T00:59:29.000Z,22.20
2022-09-16T01:01:57.726Z,22.79
2022-09-16T01:04:29.572Z,22.82
2022-09-16T01:06:56.762Z,22.49
2022-09-16T01:09:24.118Z,23.01
2022-09-16T01:11:51.920Z,22.06
2022-09-16T01:14:37.818Z,22.10
2022-09-16T01:17:34.558Z,22.31
2022-09-16T01:20:07.521Z,22.44
2022-09-16T01:22:47.115Z,22.58
2022-09-16T01:25:32.766Z,21.82
2022-09-16T01:28:15.596Z,21.45
2022-09-16T01:30:42.654Z,21.61
2022-09-16T01:33:45.475Z,21.91
2022-09-16T01:36:18.954Z,22.14
2022-09-16T01:39:04.950Z,22.26
2022-09-16T01:41:35.016Z,21.19
2022-09-16T01:44:03.772Z,22.58
2022-09-16T01:46:36.682Z,22.59
2022-09-16T01:49:24.309Z,22.53
2022-09-16T01:51:51.732Z,22.38
2022-09-16T01:54:21.097Z,22.12
2022-09-16T01:56:54.256Z,22.29
2022-09-16T01:59:40.106Z,22.81
2022-09-16T02:02:13.166Z,23.04
2022-09-16T02:04:42.639Z,21.91
2022-09-16T02:07:10.278Z,22.37
2022-09-16T02:09:48.491Z,22.42
2022-09-16T02:12:17.877Z,22.74
2022-09-16T02:14:45.601Z,23.41
2022-09-16T02:17:17.205Z,23.73
2022-09-16T02:19:46.305Z,23.35
2022-09-16T02:22:18.386Z,23.60
2022-09-16T02:24:46.336Z,23.73
2022-09-16T02:27:15.336Z,23.88
2022-09-16T02:29:50.704Z,23.85
2022-09-16T02:32:18.112Z,24.27
2022-09-16T02:34:54.881Z,24.00
2022-09-16T02:37:24.132Z,23.38
2022-09-16T02:39:53.092Z,23.98
2022-09-16T02:42:20.248Z,23.97
2022-09-16T02:44:47.690Z,23.71
2022-09-16T02:47:22.064Z,23.60
2022-09-16T02:49:55.081Z,22.64
2022-09-16T02:52:22.147Z,22.97
2022-09-16T02:54:51.102Z,23.47
2022-09-16T02:57:18.653Z,23.42
2022-09-16T02:59:45.915Z,23.50
2022-09-16T03:02:13.076Z,23.45
2022-09-16T03:04:40.472Z,21.97
2022-09-16T03:07:08.437Z,23.24
2022-09-16T03:09:37.176Z,23.25
2022-09-16T03:12:16.195Z,23.33
2022-09-16T03:14:46.545Z,23.46
2022-09-16T03:17:19.913Z,23.15
2022-09-16T03:19:55.788Z,23.64
2022-09-16T03:22:23.378Z,22.93
2022-09-16T03:24:50.939Z,23.56
2022-09-16T03:27:23.339Z,21.95
2022-09-16T03:29:54.135Z,22.00
2022-09-16T03:32:25.194Z,22.05
2022-09-16T03:34:53.241Z,22.96
2022-09-16T03:37:20.433Z,23.25
2022-09-16T03:39:56.403Z,23.35
2022-09-16T03:42:24.434Z,23.33
2022-09-16T03:44:51.943Z,23.39
2022-09-16T03:47:19.848Z,23.80
2022-09-16T03:49:47.297Z,23.67
2022-09-16T03:52:20.321Z,23.78
2022-09-16T03:54:52.639Z,23.46
2022-09-16T03:57:19.750Z,23.36
2022-09-16T03:59:46.905Z,23.52
2022-09-16T04:02:14.354Z,23.36
2022-09-16T04:04:41.795Z,23.37
2022-09-16T04:07:08.922Z,23.57
2022-09-16T04:09:37.341Z,23.29
2022-09-16T04:12:07.644Z,23.41
2022-09-16T04:14:35.434Z,23.21
2022-09-16T04:17:02.754Z,23.35
2022-09-16T04:19:30.165Z,23.57
2022-09-16T04:21:57.293Z,23.62
2022-09-16T04:24:24.432Z,23.65
2022-09-16T04:26:51.875Z,23.24
2022-09-16T04:29:19.015Z,23.87
2022-09-16T04:31:46.147Z,24.02
2022-09-16T04:34:13.567Z,24.30
2022-09-16T04:36:40.714Z,24.38
2022-09-16T04:39:07.850Z,24.41
2022-09-16T04:41:35.346Z,24.58
2022-09-16T04:44:02.494Z,24.56
2022-09-16T04:46:30.236Z,24.68
2022-09-16T04:48:58.011Z,24.69
2022-09-16T04:51:28.436Z,24.22
2022-09-16T04:53:56.511Z,24.67
2022-09-16T04:56:25.020Z,24.21
2022-09-16T04:58:53.246Z,24.63
2022-09-16T05:01:21.325Z,24.79
2022-09-16T05:03:49.719Z,24.87
2022-09-16T05:06:20.664Z,24.93
2022-09-16T05:08:48.817Z,24.42
2022-09-16T05:11:22.715Z,24.14
2022-09-16T05:13:50.135Z,24.09
2022-09-16T05:16:18.505Z,23.76
2022-09-16T05:18:46.387Z,24.36
2022-09-16T05:21:15.521Z,24.14
2022-09-16T05:23:46.721Z,24.20
2022-09-16T05:26:18.732Z,24.54
2022-09-16T05:28:46.136Z,24.82
2022-09-16T05:31:23.776Z,24.46
2022-09-16T05:33:55.078Z,24.66
2022-09-16T05:36:22.300Z,24.47
2022-09-16T05:39:10.958Z,24.04
2022-09-16T05:41:37.827Z,24.60
2022-09-16T05:44:06.585Z,24.78
2022-09-16T05:46:33.708Z,25.12
2022-09-16T05:49:01.317Z,25.20
2022-09-16T05:51:28.545Z,25.03
2022-09-16T05:53:55.924Z,24.98
2022-09-16T05:56:25.819Z,24.80
2022-09-16T06:01:38.709Z,24.25
2022-09-16T06:04:06.746Z,23.85
2022-09-16T06:06:34.955Z,24.15
2022-09-16T06:09:09.080Z,23.97
2022-09-16T06:11:37.839Z,23.87
2022-09-16T06:14:06.064Z,23.88
2022-09-16T06:16:33.373Z,24.48
2022-09-16T06:19:01.441Z,23.98
2022-09-16T06:21:28.862Z,24.55
2022-09-16T06:23:56.207Z,24.66
2022-09-16T06:26:24.862Z,24.22
2022-09-16T06:28:52.266Z,24.47
2022-09-16T06:31:23.279Z,24.24
2022-09-16T06:33:50.859Z,23.85
2022-09-16T06:36:19.060Z,23.36
2022-09-16T06:38:46.227Z,23.50
2022-09-16T06:41:14.375Z,23.23
2022-09-16T06:43:41.742Z,23.02
2022-09-16T06:46:13.546Z,22.91
2022-09-16T06:51:10.292Z,23.70
2022-09-16T06:53:37.445Z,24.15
2022-09-16T06:56:06.444Z,23.82
2022-09-16T06:58:34.293Z,24.00
2022-09-16T07:01:07.604Z,23.58
2022-09-16T07:03:38.371Z,23.74
2022-09-16T07:06:05.630Z,24.32
2022-09-16T07:08:33.110Z,23.89
2022-09-16T07:11:20.736Z,24.48
2022-09-16T07:13:48.192Z,24.54
2022-09-16T07:16:17.067Z,24.39
2022-09-16T07:18:44.429Z,23.15
2022-09-16T07:21:13.041Z,23.09
2022-09-16T07:23:40.829Z,24.09
2022-09-16T07:26:15.073Z,24.32
2022-09-16T07:28:42.923Z,23.94
2022-09-16T07:31:12.069Z,23.45
2022-09-16T07:33:40.038Z,23.14
2022-09-16T07:36:08.765Z,23.66
2022-09-16T07:38:36.257Z,23.43
2022-09-16T07:41:06.707Z,23.57
2022-09-16T07:43:34.270Z,23.50
2022-09-16T07:46:01.519Z,23.41
2022-09-16T07:48:33.882Z,23.21
2022-09-16T07:51:03.478Z,23.08
2022-09-16T07:53:30.653Z,23.38
2022-09-16T07:56:01.603Z,23.32
2022-09-16T07:58:29.015Z,23.66
2022-09-16T08:00:59.583Z,23.69
2022-09-16T08:03:30.958Z,23.33
2022-09-16T08:06:02.069Z,23.15
2022-09-16T08:08:29.407Z,23.20
2022-09-16T08:10:57.296Z,23.15
2022-09-16T08:13:24.449Z,22.93
2022-09-16T08:18:18.744Z,24.03
2022-09-16T08:20:45.855Z,23.78
2022-09-16T08:23:14.482Z,23.82
2022-09-16T08:25:42.475Z,23.53
2022-09-16T08:28:16.171Z,23.89
2022-09-16T08:30:44.066Z,24.02
2022-09-16T08:33:11.186Z,23.81
2022-09-16T08:35:38.910Z,22.80
2022-09-16T08:38:07.279Z,23.11
2022-09-16T08:40:35.114Z,23.28
2022-09-16T08:43:04.980Z,23.72
2022-09-16T08:45:39.630Z,23.52
2022-09-16T08:48:21.557Z,23.68
2022-09-16T08:50:51.540Z,24.27
2022-09-16T08:53:27.610Z,23.88
2022-09-16T08:55:55.056Z,24.11
2022-09-16T08:58:23.233Z,22.97
2022-09-16T09:00:55.234Z,23.08
2022-09-16T09:03:22.652Z,23.14
2022-09-16T09:05:53.947Z,23.82
2022-09-16T09:08:40.003Z,24.02
2022-09-16T09:11:26.082Z,23.56
2022-09-16T09:14:11.961Z,24.11
2022-09-16T09:16:44.905Z,23.65
2022-09-16T09:19:18.096Z,23.69
2022-09-16T09:21:58.648Z,23.05
2022-09-16T09:25:04.438Z,22.92
2022-09-16T09:27:36.748Z,22.86
2022-09-16T09:30:03.898Z,23.08
2022-09-16T09:32:49.122Z,22.96
2022-09-16T09:35:26.250Z,23.16
2022-09-16T09:37:59.233Z,23.41
2022-09-16T09:40:26.674Z,23.33
2022-09-16T09:42:58.925Z,23.63
2022-09-16T09:45:30.288Z,23.77
2022-09-16T09:47:58.146Z,23.51
2022-09-16T09:50:25.251Z,23.95
2022-09-16T09:52:54.504Z,23.97
2022-09-16T09:55:24.379Z,23.81
2022-09-16T09:57:55.904Z,24.08
2022-09-16T10:00:23.335Z,24.22
2022-09-16T10:02:50.779Z,24.11
2022-09-16T10:05:22.695Z,24.25
2022-09-16T10:07:50.213Z,23.05
2022-09-16T10:10:20.567Z,23.59
2022-09-16T10:12:47.763Z,24.11
2022-09-16T10:15:22.406Z,23.68
2022-09-16T10:17:50.760Z,23.73
2022-09-16T10:20:23.264Z,23.70
2022-09-16T10:22:55.888Z,23.19
2022-09-16T10:25:26.623Z,23.81
2022-09-16T10:27:54.834Z,24.69
2022-09-16T10:32:58.030Z,25.17
2022-09-16T10:35:26.489Z,25.29
2022-09-16T10:37:54.990Z,25.18
2022-09-16T10:40:24.064Z,25.47
2022-09-16T10:42:52.673Z,25.30
2022-09-16T10:45:24.672Z,25.17
2022-09-16T10:47:53.589Z,25.63
2022-09-16T10:50:21.056Z,25.47
2022-09-16T10:52:48.599Z,24.64
2022-09-16T10:55:29.675Z,25.06
2022-09-16T10:58:07.067Z,25.18
2022-09-16T11:00:45.615Z,25.40
2022-09-16T11:03:23.686Z,25.66
2022-09-16T11:05:54.512Z,25.14
2022-09-16T11:08:27.914Z,25.56
2022-09-16T11:10:59.673Z,25.66
2022-09-16T11:13:45.719Z,25.37
2022-09-16T11:16:28.274Z,25.68
2022-09-16T11:19:02.967Z,25.67
2022-09-16T11:21:56.872Z,25.70
2022-09-16T11:24:24.034Z,25.42
2022-09-16T11:26:54.207Z,25.01
2022-09-16T11:29:27.639Z,25.12
2022-09-16T11:32:01.284Z,25.20
2022-09-16T11:34:31.375Z,25.39
2022-09-16T11:37:04.687Z,25.19
2022-09-16T11:39:31.903Z,25.65
2022-09-16T11:42:19.148Z,26.32
2022-09-16T11:44:46.296Z,25.62
2022-09-16T11:47:13.755Z,25.90
2022-09-16T11:49:43.913Z,25.60
2022-09-16T11:52:17.049Z,25.77
2022-09-16T11:55:03.204Z,25.69
2022-09-16T11:57:32.002Z,25.20
2022-09-16T12:00:05.521Z,26.04
2022-09-16T12:02:54.339Z,26.42
2022-09-16T12:05:27.643Z,26.44
2022-09-16T12:08:03.174Z,25.52
2022-09-16T12:10:38.096Z,25.74
2022-09-16T12:13:06.632Z,25.72
2022-09-16T12:15:37.150Z,25.96
2022-09-16T12:18:09.019Z,26.41
2022-09-16T12:20:44.070Z,25.67
2022-09-16T12:23:18.628Z,25.88
2022-09-16T12:25:49.841Z,26.19
2022-09-16T12:28:20.544Z,26.32
2022-09-16T12:30:49.518Z,26.36
2022-09-16T12:33:19.371Z,25.81
2022-09-16T12:35:46.472Z,25.92
2022-09-16T12:38:15.921Z,26.15
2022-09-16T12:40:46.036Z,26.53
2022-09-16T12:43:23.232Z,26.50
2022-09-16T12:46:13.770Z,26.18
2022-09-16T12:48:47.479Z,25.52
2022-09-16T12:51:33.605Z,25.93
2022-09-16T12:54:11.807Z,25.99
2022-09-16T12:56:38.902Z,26.60
2022-09-16T12:59:18.450Z,26.37
2022-09-16T13:01:50.566Z,26.04
2022-09-16T13:04:18.826Z,25.76
2022-09-16T13:06:47.255Z,25.87
2022-09-16T13:09:21.461Z,26.01
2022-09-16T13:14:54.544Z,26.27
2022-09-16T13:17:32.059Z,26.55
2022-09-16T13:20:02.355Z,25.70
2022-09-16T13:22:31.030Z,25.66
2022-09-16T13:25:06.703Z,25.84
2022-09-16T13:27:35.845Z,25.79
2022-09-16T13:30:09.566Z,25.71
2022-09-16T13:32:43.471Z,26.13
2022-09-16T13:35:16.725Z,25.75
2022-09-16T13:37:44.673Z,25.72
2022-09-16T13:40:18.263Z,25.29
2022-09-16T13:42:45.740Z,25.44
2022-09-16T13:45:33.892Z,25.23
2022-09-16T13:48:14.610Z,25.65
2022-09-16T13:50:42.690Z,25.55
2022-09-16T13:53:30.342Z,25.61
2022-09-16T13:56:03.483Z,24.96
2022-09-16T13:58:31.381Z,25.12
2022-09-16T14:01:11.243Z,24.37
2022-09-16T14:03:58.810Z,25.07
2022-09-16T14:06:41.156Z,25.18
2022-09-16T14:09:15.881Z,25.11
2022-09-16T14:11:47.595Z,25.15
2022-09-16T14:14:36.289Z,25.46
2022-09-16T14:17:04.289Z,25.06
2022-09-16T14:19:32.956Z,25.35
2022-09-16T14:22:07.017Z,25.55
2022-09-16T14:24:38.593Z,25.26
2022-09-16T14:27:06.452Z,25.25
2022-09-16T14:29:33.558Z,25.46
2022-09-16T14:32:00.951Z,25.34
2022-09-16T14:34:29.284Z,25.33
2022-09-16T14:36:56.704Z,25.62
2022-09-16T14:39:24.884Z,25.36
2022-09-16T14:41:52.703Z,25.54
2022-09-16T14:44:19.860Z,25.39
2022-09-16T14:46:51.431Z,25.52
2022-09-16T14:49:18.543Z,25.79
2022-09-16T14:51:49.480Z,25.59
2022-09-16T14:54:21.432Z,25.68
2022-09-16T14:57:15.004Z,25.83
2022-09-16T14:59:42.374Z,25.54
2022-09-16T15:02:18.590Z,25.51
2022-09-16T15:04:47.192Z,25.81
2022-09-16T15:07:25.107Z,25.58
2022-09-16T15:10:03.241Z,25.96
2022-09-16T15:12:31.793Z,25.46
2022-09-16T15:15:02.897Z,25.41
2022-09-16T15:17:30.149Z,25.51
2022-09-16T15:19:58.661Z,25.34
2022-09-16T15:22:26.893Z,25.37
2022-09-16T15:24:55.864Z,25.59
2022-09-16T15:27:28.018Z,25.62
2022-09-16T15:29:59.562Z,25.87
2022-09-16T15:32:29.546Z,25.64
2022-09-16T15:35:04.224Z,25.96
2022-09-16T15:37:34.602Z,25.72
2022-09-16T15:40:09.098Z,25.38
2022-09-16T15:42:36.287Z,25.31
2022-09-16T15:45:03.807Z,24.10
2022-09-16T15:47:38.447Z,24.94
2022-09-16T15:50:06.651Z,25.15
2022-09-16T15:53:06.683Z,24.49
2022-09-16T15:55:41.584Z,24.56
2022-09-16T15:58:17.135Z,24.65
2022-09-16T16:00:53.475Z,24.89
2022-09-16T16:03:21.232Z,24.71
2022-09-16T16:05:51.965Z,24.99
2022-09-16T16:08:37.899Z,25.01
2022-09-16T16:11:06.342Z,25.16
2022-09-16T16:13:33.554Z,25.27
2022-09-16T16:16:01.059Z,25.14
2022-09-16T16:18:28.937Z,25.13
2022-09-16T16:20:56.097Z,25.03
2022-09-16T16:23:23.263Z,24.97
2022-09-16T16:25:53.038Z,25.07
2022-09-16T16:28:20.247Z,24.64
2022-09-16T16:30:47.497Z,24.90
2022-09-16T16:33:15.082Z,24.85
2022-09-16T16:35:42.318Z,25.27
2022-09-16T16:38:09.780Z,25.09
2022-09-16T16:40:37.229Z,25.20
2022-09-16T16:43:04.651Z,25.51
2022-09-16T16:45:31.878Z,25.61
2022-09-16T16:47:59.413Z,25.73
2022-09-16T16:50:26.527Z,25.96
2022-09-16T16:52:53.677Z,25.57
2022-09-16T16:55:21.076Z,25.60
2022-09-16T16:57:48.304Z,26.08
2022-09-16T17:00:16.245Z,25.74
2022-09-16T17:02:43.728Z,25.24
2022-09-16T17:05:11.004Z,25.67
2022-09-16T17:07:38.202Z,25.57
2022-09-16T17:10:06.155Z,25.56
2022-09-16T17:12:33.280Z,25.66
2022-09-16T17:15:00.440Z,25.70
2022-09-16T17:17:31.573Z,25.11
2022-09-16T17:19:59.186Z,25.50
2022-09-16T17:22:26.295Z,25.67
2022-09-16T17:24:53.682Z,25.55
2022-09-16T17:27:21.878Z,25.73
2022-09-16T17:29:49.012Z,25.75
2022-09-16T17:32:16.423Z,25.62
2022-09-16T17:34:43.554Z,25.54
2022-09-16T17:37:10.735Z,25.61
2022-09-16T17:39:38.381Z,25.56
2022-09-16T17:42:05.546Z,25.41
2022-09-16T17:44:32.680Z,25.44
2022-09-16T17:47:00.054Z,25.32
2022-09-16T17:49:27.232Z,25.28
2022-09-16T17:51:54.418Z,25.07
2022-09-16T17:54:21.957Z,25.04
2022-09-16T17:56:49.068Z,25.15
2022-09-16T17:59:16.776Z,25.20
2022-09-16T18:01:44.491Z,25.33
2022-09-16T18:04:12.616Z,25.39
2022-09-16T18:06:43.839Z,25.40
2022-09-16T18:09:11.115Z,25.33
2022-09-16T18:11:38.736Z,25.27
2022-09-16T18:14:07.930Z,25.43
2022-09-16T18:16:35.147Z,25.44
2022-09-16T18:19:04.196Z,25.22
2022-09-16T18:21:31.577Z,25.12
2022-09-16T18:24:00.593Z,24.89
2022-09-16T18:26:28.031Z,25.07
2022-09-16T18:29:12.659Z,25.02
2022-09-16T18:31:41.210Z,25.06
2022-09-16T18:34:08.381Z,25.01
2022-09-16T18:36:37.117Z,25.16
2022-09-16T18:39:05.975Z,25.20
2022-09-16T18:41:37.400Z,25.16
2022-09-16T18:44:07.431Z,25.03
2022-09-16T18:46:35.942Z,24.94
2022-09-16T18:49:03.397Z,24.82
2022-09-16T18:51:31.942Z,24.90
2022-09-16T18:54:03.127Z,25.09
2022-09-16T18:56:32.066Z,25.27
2022-09-16T18:59:20.538Z,25.15
2022-09-16T19:01:48.778Z,25.00
2022-09-16T19:04:17.849Z,24.85
2022-09-16T19:06:46.629Z,24.62
2022-09-16T19:09:15.380Z,24.47
2022-09-16T19:11:42.698Z,24.35
2022-09-16T19:14:11.456Z,24.44
2022-09-16T19:16:40.534Z,24.49
2022-09-16T19:19:08.490Z,24.71
2022-09-16T19:21:35.751Z,24.61
2022-09-16T19:24:04.777Z,24.44
2022-09-16T19:26:33.147Z,24.22
2022-09-16T19:29:01.367Z,24.09
2022-09-16T19:31:28.991Z,23.77
2022-09-16T19:33:56.165Z,23.82
2022-09-16T19:36:24.890Z,23.50
2022-09-16T19:38:52.545Z,23.83
2022-09-16T19:41:20.865Z,23.99
2022-09-16T19:43:48.346Z,24.22
2022-09-16T19:46:16.812Z,24.17
2022-09-16T19:48:48.276Z,24.43
2022-09-16T19:51:16.545Z,24.52
2022-09-16T19:53:44.108Z,24.57
2022-09-16T19:56:12.183Z,24.66
2022-09-16T19:58:42.487Z,24.55
2022-09-16T20:01:10.106Z,24.69
2022-09-16T20:03:38.157Z,24.67
2022-09-16T20:06:06.465Z,24.73
2022-09-16T20:08:34.078Z,24.71
2022-09-16T20:11:05.530Z,24.63
2022-09-16T20:13:34.012Z,24.83
2022-09-16T20:16:02.229Z,24.67
2022-09-16T20:18:30.363Z,24.84
2022-09-16T20:21:02.044Z,24.84
2022-09-16T20:23:29.750Z,24.73
2022-09-16T20:25:57.540Z,24.74
2022-09-16T20:28:25.049Z,24.71
2022-09-16T20:30:52.459Z,24.72
2022-09-16T20:33:19.616Z,24.82
2022-09-16T20:35:46.790Z,24.75
2022-09-16T20:38:14.291Z,24.21
2022-09-16T20:40:44.734Z,24.58
2022-09-16T20:43:12.350Z,24.54
2022-09-16T20:45:39.898Z,24.56
2022-09-16T20:48:07.063Z,24.66
2022-09-16T20:50:38.486Z,24.45
2022-09-16T20:53:05.944Z,24.43
2022-09-16T20:55:33.112Z,24.42
2022-09-16T20:58:00.283Z,24.00
2022-09-16T21:00:27.908Z,24.30
2022-09-16T21:02:55.655Z,24.39
2022-09-16T21:05:22.774Z,23.89
2022-09-16T21:07:50.184Z,24.39
2022-09-16T21:10:18.103Z,24.14
2022-09-16T21:12:45.248Z,23.38
2022-09-16T21:15:12.709Z,22.37
2022-09-16T21:17:39.826Z,23.20
2022-09-16T21:20:07.062Z,22.74
2022-09-16T21:22:38.177Z,22.17
2022-09-16T21:25:05.521Z,22.53
2022-09-16T21:27:33.108Z,22.35
2022-09-16T21:30:00.485Z,22.51
2022-09-16T21:32:27.602Z,22.60
2022-09-16T21:34:54.724Z,22.81
2022-09-16T21:37:22.116Z,22.52
2022-09-16T21:39:49.271Z,22.00
2022-09-16T21:42:16.798Z,22.02
2022-09-16T21:44:44.257Z,21.84
2022-09-16T21:47:11.561Z,21.82
2022-09-16T21:49:38.800Z,21.77
2022-09-16T21:52:09.467Z,22.08
2022-09-16T21:54:36.567Z,22.31
2022-09-16T21:57:04.095Z,22.01
2022-09-16T21:59:31.536Z,21.96
2022-09-16T22:02:02.961Z,21.88
2022-09-16T22:04:31.238Z,21.23
2022-09-16T22:06:58.409Z,21.45
2022-09-16T22:09:25.577Z,21.27
2022-09-16T22:11:52.995Z,21.09
2022-09-16T22:14:20.138Z,21.40
2022-09-16T22:16:47.278Z,21.38
2022-09-16T22:19:18.417Z,21.46
2022-09-16T22:21:46.533Z,21.76
2022-09-16T22:24:14.489Z,21.79
2022-09-16T22:26:43.549Z,21.21
2022-09-16T22:29:11.314Z,21.62
2022-09-16T22:31:39.042Z,21.41
2022-09-16T22:34:06.652Z,21.16
2022-09-16T22:36:34.203Z,21.11
2022-09-16T22:39:04.252Z,20.85
2022-09-16T22:41:31.818Z,21.62
2022-09-16T22:43:58.951Z,21.50
2022-09-16T22:46:29.849Z,21.13
2022-09-16T22:48:57.865Z,20.80
2022-09-16T22:51:25.265Z,20.93
2022-09-16T22:53:53.274Z,21.07
2022-09-16T22:56:21.998Z,21.43
2022-09-16T22:58:53.199Z,21.27
2022-09-16T23:01:21.703Z,21.60
2022-09-16T23:03:51.700Z,21.55
2022-09-16T23:06:18.894Z,22.04
2022-09-16T23:08:46.525Z,21.86
2022-09-16T23:11:15.583Z,21.85
2022-09-16T23:13:43.416Z,21.75
2022-09-16T23:16:14.042Z,21.66
2022-09-16T23:18:41.615Z,20.53
2022-09-16T23:21:09.856Z,21.29
2022-09-16T23:23:41.219Z,21.19
2022-09-16T23:26:09.748Z,21.58
2022-09-16T23:28:37.180Z,21.68
2022-09-16T23:31:10.196Z,21.08
2022-09-16T23:33:37.611Z,21.01
2022-09-16T23:36:04.914Z,20.81
2022-09-16T23:38:32.235Z,21.40
2022-09-16T23:41:06.350Z,21.26
2022-09-16T23:43:33.853Z,21.11
2022-09-16T23:46:02.102Z,21.49
2022-09-16T23:48:29.703Z,20.85
2022-09-16T23:50:56.977Z,20.16
2022-09-16T23:56:10.069Z,20.57
2022-09-16T23:58:37.491Z,20.83
